Time;durP1;ratioP1;P1;durP2;ratioP2;P2;SDS_P1;SDS_P2;PMS_P1;PMS_P2;Temp;Humidity;BMP_temperature;BMP_pressure;BME280_temperature;BME280_humidity;BME280_pressure;Samples;Min_cycle;Max_cycle;Signal;HPM_P1;HPM_P2
2023/07/04 00:01:20;;;;;;;40.20;38.05;;;;;;;;;;5011112;28;20129;-62
2023/07/04 00:03:50;;;;;;;36.88;34.95;;;;;;;;;;5011368;28;20101;-62
2023/07/04 00:06:17;;;;;;;39.65;37.53;;;;;;;;;;5013115;28;20042;-68
2023/07/04 00:08:43;;;;;;;42.38;40.17;;;;;;;;;;5009960;28;20042;-63
2023/07/04 00:11:09;;;;;;;42.78;40.53;;;;;;;;;;5011851;28;20785;-62
2023/07/04 00:13:36;;;;;;;44.30;42.00;;;;;;;;;;5011398;28;20034;-68
2023/07/04 00:16:05;;;;;;;49.42;46.92;;;;;;;;;;5009210;28;20125;-62
2023/07/04 00:18:31;;;;;;;52.35;49.65;;;;;;;;;;5011753;28;20128;-67
2023/07/04 00:20:59;;;;;;;55.55;52.67;;;;;;;;;;5011237;28;20087;-67
2023/07/04 00:23:33;;;;;;;56.28;53.45;;;;;;;;;;5010219;28;20053;-67
2023/07/04 00:25:59;;;;;;;58.85;55.88;;;;;;;;;;5011934;28;20041;-68
2023/07/04 00:28:25;;;;;;;56.83;53.92;;;;;;;;;;5008828;28;20038;-68
2023/07/04 00:30:52;;;;;;;59.88;56.85;;;;;;;;;;5015835;28;20037;-62
2023/07/04 00:33:22;;;;;;;58.22;55.28;;;;;;;;;;5011584;28;20095;-62
2023/07/04 00:35:49;;;;;;;62.67;58.75;;;;;;;;;;5010401;28;20033;-62
2023/07/04 00:38:15;;;;;;;61.85;58.65;;;;;;;;;;5008794;28;20531;-68
2023/07/04 00:40:40;;;;;;;66.10;62.78;;;;;;;;;;5009734;28;20068;-68
2023/07/04 00:43:10;;;;;;;66.88;63.33;;;;;;;;;;5008290;28;20397;-62
2023/07/04 00:45:43;;;;;;;68.37;64.93;;;;;;;;;;5010169;28;20137;-63
2023/07/04 00:48:11;;;;;;;60.25;57.20;;;;;;;;;;5010967;28;20755;-63
2023/07/04 00:50:41;;;;;;;68.07;64.63;;;;;;;;;;5008302;28;20037;-69
2023/07/04 00:53:09;;;;;;;65.23;61.83;;;;;;;;;;5010579;28;20360;-70
2023/07/04 00:55:38;;;;;;;65.78;62.45;;;;;;;;;;5009262;28;20524;-69
2023/07/04 00:58:05;;;;;;;66.53;63.17;;;;;;;;;;5010578;28;20026;-63
2023/07/04 01:00:31;;;;;;;68.82;65.35;;;;;;;;;;5011346;28;20117;-63
2023/07/04 01:03:05;;;;;;;71.90;68.28;;;;;;;;;;5014990;28;20438;-64
2023/07/04 01:05:46;;;;;;;71.00;67.40;;;;;;;;;;5013139;28;20060;-69
2023/07/04 01:08:38;;;;;;;67.07;63.70;;;;;;;;;;5013723;28;20549;-69
2023/07/04 01:11:09;;;;;;;63.58;60.28;;;;;;;;;;5013921;28;20502;-70
2023/07/04 01:13:38;;;;;;;64.13;60.88;;;;;;;;;;5012078;28;20124;-64
2023/07/04 01:16:05;;;;;;;62.83;59.63;;;;;;;;;;5013825;28;20037;-64
2023/07/04 01:18:32;;;;;;;64.55;61.28;;;;;;;;;;5012952;28;20052;-69
2023/07/04 01:20:59;;;;;;;63.85;60.63;;;;;;;;;;5015727;28;20570;-70
2023/07/04 01:23:24;;;;;;;65.38;61.83;;;;;;;;;;5009517;28;20049;-70
2023/07/04 01:26:31;;;;;;;63.25;59.97;;;;;;;;;;5013079;28;20030;-64
2023/07/04 01:28:59;;;;;;;53.05;50.33;;;;;;;;;;5006673;28;20447;-70
2023/07/04 01:31:26;;;;;;;56.30;53.45;;;;;;;;;;5011745;28;20486;-70
2023/07/04 01:33:53;;;;;;;58.10;55.15;;;;;;;;;;5013369;28;20136;-69
2023/07/04 01:36:24;;;;;;;62.42;59.17;;;;;;;;;;5016400;28;20052;-64
2023/07/04 01:38:50;;;;;;;57.55;54.60;;;;;;;;;;5013285;28;20065;-70
2023/07/04 01:41:15;;;;;;;57.25;54.30;;;;;;;;;;5009540;28;20073;-69
2023/07/04 01:43:43;;;;;;;56.50;53.58;;;;;;;;;;5013153;28;20033;-69
2023/07/04 01:46:09;;;;;;;58.50;55.53;;;;;;;;;;5014602;28;20502;-70
2023/07/04 01:48:34;;;;;;;58.22;55.28;;;;;;;;;;5013522;28;20104;-70
2023/07/04 01:50:59;;;;;;;54.80;52.03;;;;;;;;;;5015984;28;20518;-65
2023/07/04 01:53:25;;;;;;;54.90;52.00;;;;;;;;;;5015804;28;20053;-66
2023/07/04 01:55:50;;;;;;;52.00;49.35;;;;;;;;;;5015272;28;20042;-64
2023/07/04 01:58:15;;;;;;;54.95;52.13;;;;;;;;;;5013081;28;20103;-63
2023/07/04 02:00:41;;;;;;;53.97;51.17;;;;;;;;;;5014655;28;20091;-65
2023/07/04 02:03:07;;;;;;;52.97;50.25;;;;;;;;;;5015647;28;20017;-64
2023/07/04 02:05:33;;;;;;;52.40;49.75;;;;;;;;;;5012895;28;20503;-65
2023/07/04 02:07:58;;;;;;;53.85;51.08;;;;;;;;;;5014202;28;20360;-64
2023/07/04 02:10:24;;;;;;;50.88;48.28;;;;;;;;;;5013192;28;20215;-64
2023/07/04 02:12:50;;;;;;;52.50;49.85;;;;;;;;;;5011640;28;20041;-65
2023/07/04 02:15:15;;;;;;;52.63;49.92;;;;;;;;;;5013191;28;20041;-65
2023/07/04 02:17:40;;;;;;;44.47;42.15;;;;;;;;;;5012309;28;20108;-69
2023/07/04 02:20:06;;;;;;;44.30;41.95;;;;;;;;;;5013239;28;20048;-69
2023/07/04 02:22:33;;;;;;;43.22;41.03;;;;;;;;;;5010711;28;20044;-70
2023/07/04 02:24:58;;;;;;;40.97;38.88;;;;;;;;;;5012264;28;20104;-69
2023/07/04 02:27:24;;;;;;;40.47;38.20;;;;;;;;;;5011593;28;20033;-69
2023/07/04 02:29:50;;;;;;;35.30;33.50;;;;;;;;;;5010333;28;20029;-63
2023/07/04 02:32:15;;;;;;;35.10;33.30;;;;;;;;;;5012722;28;20037;-64
2023/07/04 02:34:40;;;;;;;34.70;32.90;;;;;;;;;;5012523;28;20042;-64
2023/07/04 02:37:06;;;;;;;30.17;28.58;;;;;;;;;;5012557;28;20025;-64
2023/07/04 02:39:31;;;;;;;32.05;30.35;;;;;;;;;;5013537;28;20037;-63
2023/07/04 02:41:57;;;;;;;28.98;27.48;;;;;;;;;;5008456;28;20449;-64
2023/07/04 02:44:22;;;;;;;29.35;27.80;;;;;;;;;;5013140;28;20037;-64
2023/07/04 02:46:47;;;;;;;25.73;24.33;;;;;;;;;;5013596;28;20447;-63
2023/07/04 02:49:13;;;;;;;28.05;26.45;;;;;;;;;;5012564;28;20423;-62
2023/07/04 02:51:39;;;;;;;24.67;22.67;;;;;;;;;;5013340;28;20040;-67
2023/07/04 02:54:04;;;;;;;20.80;19.70;;;;;;;;;;5013534;28;20037;-67
2023/07/04 02:56:31;;;;;;;21.80;20.60;;;;;;;;;;5012228;28;20073;-67
2023/07/04 02:58:57;;;;;;;22.13;20.90;;;;;;;;;;5010043;28;20165;-68
2023/07/04 03:01:22;;;;;;;21.13;19.83;;;;;;;;;;5008396;28;20074;-68
2023/07/04 03:03:48;;;;;;;19.98;18.88;;;;;;;;;;5009408;28;20140;-68
2023/07/04 03:06:13;;;;;;;20.77;19.67;;;;;;;;;;5013774;28;20037;-63
2023/07/04 03:08:38;;;;;;;19.60;18.50;;;;;;;;;;5008511;28;20037;-62
2023/07/04 03:11:04;;;;;;;19.23;18.15;;;;;;;;;;5012303;28;20052;-62
2023/07/04 03:13:31;;;;;;;19.88;18.77;;;;;;;;;;5011409;28;20021;-62
2023/07/04 03:15:56;;;;;;;18.95;17.88;;;;;;;;;;5010106;28;20038;-62
2023/07/04 03:18:22;;;;;;;19.02;17.92;;;;;;;;;;5011307;28;20045;-62
2023/07/04 03:20:47;;;;;;;20.35;19.15;;;;;;;;;;5010369;28;20043;-62
2023/07/04 03:23:12;;;;;;;18.88;17.77;;;;;;;;;;5012026;28;20037;-62
2023/07/04 03:25:38;;;;;;;17.48;16.48;;;;;;;;;;5011888;28;20034;-62
2023/07/04 03:28:03;;;;;;;19.10;18.00;;;;;;;;;;5015456;28;20033;-62
2023/07/04 03:30:28;;;;;;;18.95;17.88;;;;;;;;;;5011909;28;20060;-62
2023/07/04 03:32:54;;;;;;;18.83;17.83;;;;;;;;;;5011559;28;20072;-62
2023/07/04 03:35:19;;;;;;;20.15;19.05;;;;;;;;;;5012033;28;20030;-62
2023/07/04 03:37:44;;;;;;;18.88;17.77;;;;;;;;;;5011930;28;20105;-62
2023/07/04 03:40:10;;;;;;;21.17;19.55;;;;;;;;;;5014016;28;20040;-62
2023/07/04 03:42:38;;;;;;;19.52;18.42;;;;;;;;;;5008907;28;20049;-62
2023/07/04 03:45:05;;;;;;;20.67;19.48;;;;;;;;;;5009306;28;20086;-62
2023/07/04 03:47:31;;;;;;;22.63;21.42;;;;;;;;;;5008077;28;20534;-62
2023/07/04 03:49:56;;;;;;;23.17;21.77;;;;;;;;;;5009607;28;20103;-62
2023/07/04 03:52:22;;;;;;;23.88;22.45;;;;;;;;;;5011094;28;20042;-62
2023/07/04 03:54:47;;;;;;;24.25;22.85;;;;;;;;;;5011102;28;20052;-67
2023/07/04 03:57:13;;;;;;;20.17;19.08;;;;;;;;;;5013153;28;20038;-67
2023/07/04 03:59:38;;;;;;;23.20;21.95;;;;;;;;;;5006966;28;20042;-62
2023/07/04 04:02:04;;;;;;;22.63;21.42;;;;;;;;;;5007774;28;20049;-62
2023/07/04 04:04:29;;;;;;;25.60;24.02;;;;;;;;;;5012918;28;20806;-67
2023/07/04 04:06:58;;;;;;;21.58;20.35;;;;;;;;;;5012304;28;20041;-67
2023/07/04 04:09:24;;;;;;;26.10;24.67;;;;;;;;;;5011522;28;20488;-62
2023/07/04 04:11:50;;;;;;;27.70;25.95;;;;;;;;;;5007340;28;20179;-62
2023/07/04 04:14:16;;;;;;;29.42;27.83;;;;;;;;;;5011166;28;20474;-62
2023/07/04 04:16:41;;;;;;;28.77;27.08;;;;;;;;;;5009605;28;20037;-67
2023/07/04 04:19:07;;;;;;;29.13;27.63;;;;;;;;;;5011201;28;20030;-67
2023/07/04 04:21:32;;;;;;;28.80;27.13;;;;;;;;;;5010046;28;20042;-67
2023/07/04 04:23:57;;;;;;;28.65;27.00;;;;;;;;;;5013830;28;20447;-62
2023/07/04 04:26:24;;;;;;;28.50;27.00;;;;;;;;;;5008035;28;20066;-62
2023/07/04 04:28:49;;;;;;;30.70;29.10;;;;;;;;;;5006359;28;20033;-62
2023/07/04 04:31:16;;;;;;;30.10;28.42;;;;;;;;;;5009104;28;20411;-62
2023/07/04 04:33:41;;;;;;;27.60;26.10;;;;;;;;;;5011744;28;20037;-67
2023/07/04 04:36:07;;;;;;;31.35;29.73;;;;;;;;;;5011641;28;20034;-63
2023/07/04 04:38:36;;;;;;;30.27;28.67;;;;;;;;;;5008207;28;20044;-62
2023/07/04 04:41:05;;;;;;;31.50;29.80;;;;;;;;;;5015201;28;20044;-62
2023/07/04 04:43:32;;;;;;;34.90;33.10;;;;;;;;;;5014357;28;20033;-62
2023/07/04 04:45:59;;;;;;;35.08;33.20;;;;;;;;;;5015738;28;20136;-67
2023/07/04 04:48:29;;;;;;;36.22;34.35;;;;;;;;;;5009845;28;20045;-62
2023/07/04 04:51:00;;;;;;;43.93;41.70;;;;;;;;;;5014058;28;20058;-62
2023/07/04 04:53:26;;;;;;;43.00;40.70;;;;;;;;;;5014699;28;20300;-63
2023/07/04 04:55:52;;;;;;;41.97;39.85;;;;;;;;;;5015956;28;20041;-63
2023/07/04 04:58:18;;;;;;;47.72;45.30;;;;;;;;;;5013420;28;20125;-64
2023/07/04 05:00:44;;;;;;;52.67;49.80;;;;;;;;;;5011304;28;20040;-64
2023/07/04 05:03:10;;;;;;;59.33;56.13;;;;;;;;;;5013701;28;20045;-61
2023/07/04 05:05:36;;;;;;;56.60;53.72;;;;;;;;;;5012578;28;20063;-64
2023/07/04 05:08:01;;;;;;;61.75;58.40;;;;;;;;;;5013047;28;20414;-65
2023/07/04 05:10:26;;;;;;;58.25;55.30;;;;;;;;;;5014479;28;20065;-66
2023/07/04 05:12:52;;;;;;;65.25;61.97;;;;;;;;;;5011523;28;20168;-62
2023/07/04 05:15:17;;;;;;;61.38;58.25;;;;;;;;;;5015047;28;20048;-66
2023/07/04 05:17:42;;;;;;;61.60;58.50;;;;;;;;;;5014155;28;20061;-66
2023/07/04 05:20:13;;;;;;;76.18;72.38;;;;;;;;;;5017212;28;20045;-63
2023/07/04 05:22:38;;;;;;;69.65;66.18;;;;;;;;;;5010218;28;20125;-66
2023/07/04 05:25:05;;;;;;;71.65;68.07;;;;;;;;;;5020927;28;20121;-63
2023/07/04 05:27:30;;;;;;;74.40;70.68;;;;;;;;;;5018229;28;20056;-63
2023/07/04 05:29:56;;;;;;;69.22;65.72;;;;;;;;;;5014728;28;20459;-62
2023/07/04 05:32:22;;;;;;;62.45;59.05;;;;;;;;;;5011605;28;20032;-68
2023/07/04 05:34:48;;;;;;;46.05;43.67;;;;;;;;;;5014535;28;20048;-64
2023/07/04 05:37:14;;;;;;;42.20;40.03;;;;;;;;;;5014598;28;20128;-69
2023/07/04 05:39:39;;;;;;;34.30;32.50;;;;;;;;;;5011855;28;20123;-66
2023/07/04 05:42:05;;;;;;;42.97;40.72;;;;;;;;;;5016061;28;20065;-64
2023/07/04 05:44:30;;;;;;;26.88;25.13;;;;;;;;;;5015166;28;20033;-62
2023/07/04 05:46:55;;;;;;;27.00;25.33;;;;;;;;;;5011923;28;20048;-63
2023/07/04 05:49:21;;;;;;;28.75;27.17;;;;;;;;;;5012109;28;20654;-68
2023/07/04 05:51:46;;;;;;;26.55;25.13;;;;;;;;;;5011672;28;20041;-63
2023/07/04 05:54:12;;;;;;;20.10;18.80;;;;;;;;;;5011757;28;20033;-63
2023/07/04 05:56:37;;;;;;;20.08;18.13;;;;;;;;;;5014372;28;20040;-69
2023/07/04 05:59:03;;;;;;;17.73;16.73;;;;;;;;;;5013624;28;20087;-68
2023/07/04 06:01:40;;;;;;;18.67;17.67;;;;;;;;;;5011587;28;20044;-69
2023/07/04 06:04:08;;;;;;;16.63;15.57;;;;;;;;;;5010563;28;20021;-62
2023/07/04 06:06:42;;;;;;;18.63;17.52;;;;;;;;;;5007153;28;20044;-62
2023/07/04 06:09:13;;;;;;;18.02;16.90;;;;;;;;;;5012932;28;20034;-64
2023/07/04 06:11:43;;;;;;;17.85;16.45;;;;;;;;;;5010196;28;20037;-70
2023/07/04 06:14:09;;;;;;;21.90;18.38;;;;;;;;;;5012355;28;20026;-64
2023/07/04 06:16:34;;;;;;;15.80;14.43;;;;;;;;;;5020129;28;20048;-64
2023/07/04 06:19:03;;;;;;;16.52;15.52;;;;;;;;;;5019309;28;20037;-64
2023/07/04 06:21:28;;;;;;;19.48;18.38;;;;;;;;;;5018360;28;20033;-70
2023/07/04 06:23:56;;;;;;;16.23;15.32;;;;;;;;;;5010710;28;20044;-70
2023/07/04 06:26:22;;;;;;;16.98;15.90;;;;;;;;;;5007974;28;20811;-69
2023/07/04 06:28:49;;;;;;;13.88;13.05;;;;;;;;;;5011110;28;20037;-71
2023/07/04 06:31:16;;;;;;;17.23;16.25;;;;;;;;;;5010551;28;20068;-65
2023/07/04 06:33:42;;;;;;;19.02;17.95;;;;;;;;;;5010438;28;20038;-70
2023/07/04 06:36:10;;;;;;;21.48;20.30;;;;;;;;;;5008625;28;20108;-70
2023/07/04 06:38:35;;;;;;;53.67;50.97;;;;;;;;;;5012713;28;20045;-70
2023/07/04 06:41:02;;;;;;;64.28;61.03;;;;;;;;;;5013222;28;20040;-70
2023/07/04 06:43:30;;;;;;;38.55;36.50;;;;;;;;;;5013610;28;20503;-71
2023/07/04 06:45:56;;;;;;;51.47;48.88;;;;;;;;;;5009682;28;20049;-72
2023/07/04 06:48:23;;;;;;;81.68;77.55;;;;;;;;;;5010063;28;20387;-71
2023/07/04 06:50:59;;;;;;;94.07;89.38;;;;;;;;;;5011552;28;20049;-70
2023/07/04 06:53:25;;;;;;;89.70;85.03;;;;;;;;;;5013790;28;20044;-71
2023/07/04 06:55:50;;;;;;;98.90;93.93;;;;;;;;;;5010512;28;20038;-64
2023/07/04 06:58:16;;;;;;;88.18;83.65;;;;;;;;;;5013479;28;20034;-71
2023/07/04 07:00:41;;;;;;;113.68;108.03;;;;;;;;;;5008462;28;20037;-71
2023/07/04 07:03:07;;;;;;;77.13;73.28;;;;;;;;;;5012438;28;20040;-64
2023/07/04 07:05:40;;;;;;;77.03;73.13;;;;;;;;;;5013546;28;20083;-71
2023/07/04 07:08:06;;;;;;;85.90;81.57;;;;;;;;;;5011693;28;20069;-63
2023/07/04 07:10:31;;;;;;;105.07;99.88;;;;;;;;;;5010666;28;20127;-71
2023/07/04 07:12:58;;;;;;;89.30;84.70;;;;;;;;;;5010694;28;20041;-67
2023/07/04 07:15:25;;;;;;;73.30;69.57;;;;;;;;;;5012225;28;20520;-64
2023/07/04 07:17:50;;;;;;;108.13;102.75;;;;;;;;;;5006274;28;20025;-64
2023/07/04 07:20:16;;;;;;;48.45;46.03;;;;;;;;;;5009934;28;20037;-64
2023/07/04 07:22:41;;;;;;;66.75;63.40;;;;;;;;;;5011132;28;20044;-70
2023/07/04 07:25:07;;;;;;;108.70;103.30;;;;;;;;;;5009049;28;20327;-64
2023/07/04 07:27:32;;;;;;;98.97;94.07;;;;;;;;;;5011054;28;20577;-71
2023/07/04 07:29:58;;;;;;;33.53;31.73;;;;;;;;;;5010735;28;20040;-72
2023/07/04 07:32:23;;;;;;;75.78;71.78;;;;;;;;;;5012765;28;20033;-64
2023/07/04 07:34:49;;;;;;;84.40;80.18;;;;;;;;;;5011450;28;20187;-63
2023/07/04 07:37:14;;;;;;;42.20;39.85;;;;;;;;;;5015243;28;20611;-71
2023/07/04 07:39:40;;;;;;;34.40;32.50;;;;;;;;;;5012465;28;20041;-70
2023/07/04 07:42:06;;;;;;;47.25;44.85;;;;;;;;;;5010883;28;20022;-64
2023/07/04 07:44:31;;;;;;;36.40;34.50;;;;;;;;;;5012224;28;20046;-64
2023/07/04 07:46:56;;;;;;;38.40;36.42;;;;;;;;;;5011469;28;20125;-70
2023/07/04 07:49:22;;;;;;;28.70;27.20;;;;;;;;;;5015259;28;20128;-71
2023/07/04 07:51:47;;;;;;;28.52;27.00;;;;;;;;;;5011887;28;20129;-65
2023/07/04 07:54:14;;;;;;;24.13;22.83;;;;;;;;;;5013452;28;20117;-64
2023/07/04 07:56:44;;;;;;;28.35;26.33;;;;;;;;;;5012037;28;20088;-71
2023/07/04 07:59:09;;;;;;;26.13;24.73;;;;;;;;;;5013215;28;20369;-64
2023/07/04 08:01:35;;;;;;;29.30;27.70;;;;;;;;;;5010155;28;20048;-66
2023/07/04 08:04:02;;;;;;;38.28;36.10;;;;;;;;;;5009841;28;20037;-66
2023/07/04 08:06:38;;;;;;;28.77;27.15;;;;;;;;;;5013172;28;20046;-66
2023/07/04 08:09:07;;;;;;;25.77;24.33;;;;;;;;;;5009703;28;20438;-65
2023/07/04 08:11:32;;;;;;;27.13;25.63;;;;;;;;;;5011532;28;20045;-64
2023/07/04 08:13:59;;;;;;;27.73;26.17;;;;;;;;;;5015739;28;20033;-65
2023/07/04 08:16:41;;;;;;;37.30;35.30;;;;;;;;;;5014875;28;20157;-73
2023/07/04 08:19:06;;;;;;;35.30;33.45;;;;;;;;;;5015421;28;20025;-72
2023/07/04 08:21:32;;;;;;;38.95;36.97;;;;;;;;;;5015123;28;20123;-70
2023/07/04 08:23:58;;;;;;;40.70;38.63;;;;;;;;;;5012994;28;20460;-70
2023/07/04 08:26:25;;;;;;;42.40;40.22;;;;;;;;;;5017751;28;20042;-63
2023/07/04 08:28:55;;;;;;;55.70;52.83;;;;;;;;;;5014892;28;20054;-62
2023/07/04 08:31:22;;;;;;;95.38;90.63;;;;;;;;;;5015543;28;20573;-63
2023/07/04 08:33:48;;;;;;;89.47;84.80;;;;;;;;;;5013174;28;20139;-63
2023/07/04 08:36:14;;;;;;;93.03;88.20;;;;;;;;;;5011667;28;20039;-63
2023/07/04 08:38:41;;;;;;;100.22;95.25;;;;;;;;;;5013485;28;20065;-60
2023/07/04 08:41:25;;;;;;;101.97;96.28;;;;;;;;;;5014491;28;20060;-69
2023/07/04 08:44:22;;;;;;;102.35;97.35;;;;;;;;;;5019577;28;20562;-71
2023/07/04 08:46:53;;;;;;;95.78;91.07;;;;;;;;;;5014058;28;20041;-62
2023/07/04 08:49:40;;;;;;;99.13;94.22;;;;;;;;;;5016154;28;20037;-71
2023/07/04 08:52:24;;;;;;;92.45;87.72;;;;;;;;;;5014848;28;20034;-70
2023/07/04 08:54:51;;;;;;;91.82;87.30;;;;;;;;;;5014990;28;20037;-63
2023/07/04 08:57:16;;;;;;;105.15;99.97;;;;;;;;;;5015485;28;20037;-72
2023/07/04 08:59:44;;;;;;;112.63;107.00;;;;;;;;;;5012304;28;20073;-63
2023/07/04 09:02:24;;;;;;;100.32;95.40;;;;;;;;;;5012031;28;20077;-65
2023/07/04 09:05:23;;;;;;;106.75;101.45;;;;;;;;;;5011307;28;20081;-72
2023/07/04 09:08:13;;;;;;;104.85;99.60;;;;;;;;;;5011031;28;20033;-72
2023/07/04 09:10:42;;;;;;;84.53;80.32;;;;;;;;;;5015516;28;20042;-64
2023/07/04 09:13:15;;;;;;;105.45;100.25;;;;;;;;;;5012158;28;20038;-71
2023/07/04 09:15:46;;;;;;;114.70;108.97;;;;;;;;;;5010687;28;20045;-73
2023/07/04 09:18:50;;;;;;;112.22;106.57;;;;;;;;;;5013460;28;20072;-71
2023/07/04 09:21:18;;;;;;;96.95;92.15;;;;;;;;;;5022461;28;20064;-69
2023/07/04 09:23:46;;;;;;;107.28;101.97;;;;;;;;;;5010014;28;20414;-68
2023/07/04 09:26:15;;;;;;;112.25;106.72;;;;;;;;;;5011645;28;20033;-69
2023/07/04 09:28:47;;;;;;;111.07;105.53;;;;;;;;;;5015151;28;20112;-70
2023/07/04 09:31:18;;;;;;;103.35;98.18;;;;;;;;;;5012763;28;20033;-72
2023/07/04 09:33:47;;;;;;;107.85;102.45;;;;;;;;;;5008675;28;20037;-72
2023/07/04 09:36:15;;;;;;;115.50;109.63;;;;;;;;;;5013241;28;20068;-63
2023/07/04 09:38:55;;;;;;;114.43;108.75;;;;;;;;;;5014483;28;20037;-63
2023/07/04 09:41:25;;;;;;;116.57;110.85;;;;;;;;;;5015951;28;20037;-63
2023/07/04 09:43:51;;;;;;;116.38;110.60;;;;;;;;;;5009551;28;20037;-64
2023/07/04 09:46:27;;;;;;;127.00;120.72;;;;;;;;;;5010641;28;20121;-63
2023/07/04 09:48:55;;;;;;;86.65;82.32;;;;;;;;;;5010009;28;20033;-65
2023/07/04 09:51:30;;;;;;;79.93;75.93;;;;;;;;;;5015555;28;20047;-73
2023/07/04 09:54:11;;;;;;;61.15;57.85;;;;;;;;;;5011857;28;20030;-71
2023/07/04 09:56:37;;;;;;;65.93;62.63;;;;;;;;;;5012554;28;20778;-64
2023/07/04 09:59:11;;;;;;;67.13;63.72;;;;;;;;;;5012525;28;20052;-66
2023/07/04 10:01:51;;;;;;;61.40;58.33;;;;;;;;;;5010301;28;20033;-72
2023/07/04 10:04:24;;;;;;;58.30;55.33;;;;;;;;;;4978913;28;1030374;-69
2023/07/04 10:06:52;;;;;;;58.55;55.58;;;;;;;;;;5014057;28;20045;-73
2023/07/04 10:09:20;;;;;;;64.22;60.97;;;;;;;;;;5013808;28;20478;-70
2023/07/04 10:11:48;;;;;;;63.17;60.00;;;;;;;;;;5011512;28;20049;-63
2023/07/04 10:14:15;;;;;;;67.60;64.18;;;;;;;;;;5010801;28;20091;-72
2023/07/04 10:17:14;;;;;;;67.95;64.43;;;;;;;;;;5008491;28;20052;-71
2023/07/04 10:19:45;;;;;;;70.43;66.80;;;;;;;;;;5015846;28;20120;-71
2023/07/04 10:22:10;;;;;;;69.13;65.65;;;;;;;;;;5012464;28;20033;-70
2023/07/04 10:24:35;;;;;;;70.78;67.28;;;;;;;;;;5012344;28;20080;-65
2023/07/04 10:27:12;;;;;;;45.85;43.53;;;;;;;;;;5012242;28;20037;-72
2023/07/04 10:29:52;;;;;;;50.63;48.05;;;;;;;;;;5008426;28;20450;-70
2023/07/04 10:32:18;;;;;;;39.13;37.05;;;;;;;;;;5014073;28;20113;-68
2023/07/04 10:34:47;;;;;;;56.28;52.55;;;;;;;;;;5012415;28;20077;-69
2023/07/04 10:37:23;;;;;;;41.10;38.97;;;;;;;;;;5012999;28;20034;-71
2023/07/04 10:39:54;;;;;;;33.65;31.85;;;;;;;;;;5014398;28;20033;-70
2023/07/04 10:42:26;;;;;;;44.30;41.95;;;;;;;;;;5009204;28;20041;-64
2023/07/04 10:44:55;;;;;;;45.15;42.85;;;;;;;;;;5009494;28;20136;-63
2023/07/04 10:47:30;;;;;;;33.70;31.90;;;;;;;;;;5009864;28;20048;-70
2023/07/04 10:50:01;;;;;;;30.92;29.33;;;;;;;;;;5009315;28;20483;-64
2023/07/04 10:52:32;;;;;;;36.08;34.08;;;;;;;;;;5009237;28;20026;-63
2023/07/04 10:54:59;;;;;;;25.90;24.50;;;;;;;;;;5010751;28;20045;-70
2023/07/04 10:57:35;;;;;;;36.22;34.28;;;;;;;;;;5012699;28;20049;-62
2023/07/04 11:00:22;;;;;;;33.17;30.98;;;;;;;;;;5008208;28;21514;-63
2023/07/04 11:02:53;;;;;;;38.33;36.33;;;;;;;;;;5010049;28;20042;-63
2023/07/04 11:05:35;;;;;;;37.53;35.10;;;;;;;;;;5014930;28;20070;-70
2023/07/04 11:08:02;;;;;;;76.95;73.05;;;;;;;;;;5009737;28;20082;-70
2023/07/04 11:10:32;;;;;;;41.38;39.25;;;;;;;;;;5018034;28;20037;-71
2023/07/04 11:12:57;;;;;;;78.93;73.70;;;;;;;;;;5009568;28;20045;-64
2023/07/04 11:15:34;;;;;;;71.10;67.55;;;;;;;;;;5012252;28;20033;-65
2023/07/04 11:18:01;;;;;;;53.75;50.92;;;;;;;;;;5013370;28;20034;-69
2023/07/04 11:20:48;;;;;;;61.80;58.72;;;;;;;;;;5013468;28;20041;-64
2023/07/04 11:23:16;;;;;;;101.95;96.68;;;;;;;;;;5008181;28;20503;-69
2023/07/04 11:25:41;;;;;;;48.60;46.13;;;;;;;;;;5014310;28;20042;-62
2023/07/04 11:28:17;;;;;;;117.25;111.43;;;;;;;;;;5007978;28;20320;-64
2023/07/04 11:30:45;;;;;;;127.15;120.80;;;;;;;;;;5010051;28;20030;-65
2023/07/04 11:33:40;;;;;;;123.22;117.10;;;;;;;;;;5008187;28;20036;-64
2023/07/04 11:36:15;;;;;;;124.57;118.40;;;;;;;;;;5009209;28;20037;-64
2023/07/04 11:38:42;;;;;;;117.88;112.00;;;;;;;;;;5006608;28;20046;-63
2023/07/04 11:41:09;;;;;;;111.20;105.60;;;;;;;;;;5008000;28;20033;-62
2023/07/04 11:43:43;;;;;;;111.72;106.07;;;;;;;;;;5008216;28;20034;-68
2023/07/04 11:46:21;;;;;;;139.43;132.48;;;;;;;;;;5009285;28;20053;-69
2023/07/04 11:48:50;;;;;;;129.55;123.18;;;;;;;;;;5008201;28;20041;-69
2023/07/04 11:51:18;;;;;;;89.72;85.13;;;;;;;;;;5010068;28;20778;-70
2023/07/04 11:53:47;;;;;;;89.20;84.80;;;;;;;;;;5006910;28;20041;-70
2023/07/04 11:56:33;;;;;;;102.80;97.60;;;;;;;;;;5006990;28;20034;-70
2023/07/04 11:59:10;;;;;;;113.95;108.28;;;;;;;;;;5007099;28;20040;-69
2023/07/04 12:01:51;;;;;;;100.45;95.45;;;;;;;;;;5011679;28;20076;-70
2023/07/04 12:04:32;;;;;;;130.90;124.22;;;;;;;;;;5009382;28;20216;-70
2023/07/04 12:07:03;;;;;;;96.60;91.75;;;;;;;;;;5011210;28;20620;-69
2023/07/04 12:09:35;;;;;;;99.82;94.80;;;;;;;;;;5006556;28;20045;-70
2023/07/04 12:12:03;;;;;;;112.80;107.20;;;;;;;;;;5014243;28;20029;-66
2023/07/04 12:14:32;;;;;;;129.13;122.72;;;;;;;;;;5008746;28;20078;-71
2023/07/04 12:16:59;;;;;;;122.82;116.72;;;;;;;;;;5008778;28;20096;-68
2023/07/04 12:19:25;;;;;;;92.90;88.25;;;;;;;;;;5025598;28;20041;-61
2023/07/04 12:21:50;;;;;;;104.50;99.30;;;;;;;;;;5009336;28;20087;-62
2023/07/04 12:24:21;;;;;;;101.78;96.70;;;;;;;;;;5010021;28;20029;-62
2023/07/04 12:26:53;;;;;;;;;;;;;;;;;;5009876;28;20049;-67
2023/07/04 12:29:18;;;;;;;110.40;104.88;;;;;;;;;;5009438;28;20800;-63
2023/07/04 12:31:44;;;;;;;87.88;83.47;;;;;;;;;;5009925;28;20072;-62
2023/07/04 12:34:10;;;;;;;78.25;74.30;;;;;;;;;;5013069;28;20164;-69
2023/07/04 12:36:37;;;;;;;69.50;66.03;;;;;;;;;;5011165;28;20686;-60
2023/07/04 12:39:04;;;;;;;73.03;69.32;;;;;;;;;;5015745;28;20052;-68
2023/07/04 12:41:31;;;;;;;75.20;71.38;;;;;;;;;;5011607;28;20037;-68
2023/07/04 12:44:02;;;;;;;80.43;75.85;;;;;;;;;;5012597;28;20041;-68
2023/07/04 12:46:30;;;;;;;81.32;77.22;;;;;;;;;;5011361;28;20034;-62
2023/07/04 12:48:56;;;;;;;75.30;71.32;;;;;;;;;;5011344;28;20095;-68
2023/07/04 12:51:26;;;;;;;71.97;68.30;;;;;;;;;;5010573;28;20049;-62
2023/07/04 12:53:53;;;;;;;68.00;64.60;;;;;;;;;;5008738;28;20042;-62
2023/07/04 12:56:19;;;;;;;68.65;65.18;;;;;;;;;;5011659;28;20277;-68
2023/07/04 12:58:46;;;;;;;81.75;77.45;;;;;;;;;;5016324;28;20038;-62
2023/07/04 13:01:18;;;;;;;73.88;69.30;;;;;;;;;;5016064;28;20037;-69
2023/07/04 13:03:45;;;;;;;72.93;69.30;;;;;;;;;;5014531;28;20096;-69
2023/07/04 13:06:20;;;;;;;80.32;76.32;;;;;;;;;;5013870;28;20029;-68
2023/07/04 13:08:52;;;;;;;72.85;69.05;;;;;;;;;;5012302;28;20080;-62
2023/07/04 13:11:20;;;;;;;70.20;66.63;;;;;;;;;;5014772;28;20038;-63
2023/07/04 13:13:48;;;;;;;68.80;65.00;;;;;;;;;;5011078;28;20048;-62
2023/07/04 13:16:29;;;;;;;73.30;69.47;;;;;;;;;;5012896;28;20034;-68
2023/07/04 13:19:13;;;;;;;69.15;65.57;;;;;;;;;;5010963;28;20047;-62
2023/07/04 13:21:44;;;;;;;71.85;68.07;;;;;;;;;;5014743;28;20052;-68
2023/07/04 13:24:12;;;;;;;68.10;64.68;;;;;;;;;;5012043;28;20038;-69
2023/07/04 13:26:40;;;;;;;71.55;67.95;;;;;;;;;;5011713;28;20037;-68
2023/07/04 13:29:21;;;;;;;70.93;67.35;;;;;;;;;;5013909;28;20427;-62
2023/07/04 13:31:47;;;;;;;64.90;61.58;;;;;;;;;;5008433;28;20049;-68
2023/07/04 13:34:21;;;;;;;69.20;65.60;;;;;;;;;;5014490;28;20049;-68
2023/07/04 13:36:49;;;;;;;68.00;64.53;;;;;;;;;;5017398;28;20038;-68
2023/07/04 13:39:15;;;;;;;63.90;60.63;;;;;;;;;;5014952;28;20029;-66
2023/07/04 13:41:43;;;;;;;66.28;62.95;;;;;;;;;;5012170;28;20038;-68
2023/07/04 13:44:13;;;;;;;66.32;62.92;;;;;;;;;;5014278;28;20155;-66
2023/07/04 13:46:39;;;;;;;71.97;68.38;;;;;;;;;;5014715;28;20463;-63
2023/07/04 13:49:04;;;;;;;75.30;71.50;;;;;;;;;;5013032;28;20049;-63
2023/07/04 13:51:30;;;;;;;80.78;76.63;;;;;;;;;;5012887;28;20403;-62
2023/07/04 13:53:55;;;;;;;87.15;82.85;;;;;;;;;;5014580;28;20037;-68
2023/07/04 13:56:21;;;;;;;79.30;75.32;;;;;;;;;;5016224;28;20025;-68
2023/07/04 13:58:46;;;;;;;83.32;79.20;;;;;;;;;;5012823;28;20455;-69
2023/07/04 14:01:13;;;;;;;83.10;78.95;;;;;;;;;;5011203;28;20092;-68
2023/07/04 14:03:39;;;;;;;84.10;79.75;;;;;;;;;;5012292;28;20029;-68
2023/07/04 14:06:05;;;;;;;85.32;81.03;;;;;;;;;;5013519;28;20044;-63
2023/07/04 14:08:33;;;;;;;83.50;79.30;;;;;;;;;;5012509;28;20494;-67
2023/07/04 14:11:03;;;;;;;83.65;79.30;;;;;;;;;;5014733;28;20072;-67
2023/07/04 14:13:29;;;;;;;87.07;82.72;;;;;;;;;;5011868;28;20041;-61
2023/07/04 14:15:56;;;;;;;87.57;83.25;;;;;;;;;;5011300;28;20038;-61
2023/07/04 14:18:22;;;;;;;89.35;84.85;;;;;;;;;;5016568;28;20045;-61
2023/07/04 14:20:48;;;;;;;89.38;84.88;;;;;;;;;;5010333;28;20030;-68
2023/07/04 14:23:13;;;;;;;88.38;84.00;;;;;;;;;;5008955;28;20029;-68